createdAt,value
2023-07-24T00:01:47.929Z,1.42
2023-07-24T00:04:50.123Z,1.42
2023-07-24T00:07:54.281Z,1.70
2023-07-24T00:10:56.065Z,1.80
2023-07-24T00:13:57.900Z,1.43
2023-07-24T00:16:59.723Z,1.45
2023-07-24T00:20:09.847Z,1.38
2023-07-24T00:23:11.902Z,1.70
2023-07-24T00:26:14.051Z,1.65
2023-07-24T00:29:15.901Z,1.70
2023-07-24T00:32:18.658Z,1.50
2023-07-24T00:35:20.940Z,1.83
2023-07-24T00:38:36.721Z,1.30
2023-07-24T00:41:38.558Z,1.30
2023-07-24T00:44:40.333Z,1.83
2023-07-24T00:47:44.197Z,2.00
2023-07-24T00:50:47.040Z,1.77
2023-07-24T00:53:49.003Z,1.67
2023-07-24T00:56:51.506Z,1.77
2023-07-24T00:59:53.779Z,1.57
2023-07-24T01:02:57.159Z,1.90
2023-07-24T01:05:59.122Z,1.90
2023-07-24T01:09:01.164Z,1.73
2023-07-24T01:12:08.452Z,2.10
2023-07-24T01:15:15.886Z,1.87
2023-07-24T01:18:18.618Z,2.38
2023-07-24T01:21:26.920Z,2.20
2023-07-24T01:24:38.325Z,1.88
2023-07-24T01:27:46.485Z,1.73
2023-07-24T01:30:49.370Z,1.80
2023-07-24T01:33:51.614Z,1.63
2023-07-24T01:36:53.497Z,2.00
2023-07-24T01:39:56.796Z,1.95
2023-07-24T01:43:00.737Z,2.10
2023-07-24T01:46:02.704Z,1.70
2023-07-24T01:49:04.716Z,1.70
2023-07-24T01:52:06.646Z,1.90
2023-07-24T01:55:10.207Z,1.88
2023-07-24T01:58:15.468Z,1.90
2023-07-24T02:01:17.401Z,1.73
2023-07-24T02:04:19.627Z,1.70
2023-07-24T02:07:22.882Z,1.80
2023-07-24T02:10:24.749Z,1.83
2023-07-24T02:13:31.618Z,1.73
2023-07-24T02:16:34.514Z,1.90
2023-07-24T02:19:36.795Z,1.70
2023-07-24T02:22:38.750Z,1.80
2023-07-24T02:25:44.178Z,1.48
2023-07-24T02:28:45.954Z,1.70
2023-07-24T02:31:49.678Z,1.53
2023-07-24T02:34:52.635Z,1.70
2023-07-24T02:37:54.722Z,1.48
2023-07-24T02:40:58.178Z,1.75
2023-07-24T02:44:04.503Z,1.70
2023-07-24T02:47:06.618Z,1.60
2023-07-24T02:50:08.663Z,1.48
2023-07-24T02:53:11.951Z,2.03
2023-07-24T02:56:13.749Z,1.85
2023-07-24T02:59:16.123Z,1.90
2023-07-24T03:02:19.055Z,1.50
2023-07-24T03:05:20.933Z,1.60
2023-07-24T03:08:22.674Z,1.98
2023-07-24T03:11:24.654Z,1.60
2023-07-24T03:14:27.194Z,1.85
2023-07-24T03:17:29.070Z,1.70
2023-07-24T03:20:30.931Z,2.15
2023-07-24T03:23:32.677Z,2.28
2023-07-24T03:26:34.779Z,2.60
2023-07-24T03:29:38.498Z,1.95
2023-07-24T03:32:40.571Z,2.20
2023-07-24T03:35:42.526Z,2.30
2023-07-24T03:38:44.913Z,2.20
2023-07-24T03:41:47.664Z,2.10
2023-07-24T03:44:49.380Z,2.03
2023-07-24T03:47:51.266Z,1.90
2023-07-24T03:50:59.064Z,1.90
2023-07-24T03:54:06.758Z,1.80
2023-07-24T03:57:08.576Z,2.42
2023-07-24T04:00:10.568Z,2.10
2023-07-24T04:03:15.714Z,2.40
2023-07-24T04:06:19.164Z,2.13
2023-07-24T04:09:21.256Z,2.17
2023-07-24T04:12:23.016Z,2.30
2023-07-24T04:15:24.916Z,2.97
2023-07-24T04:18:26.717Z,2.87
2023-07-24T04:21:28.937Z,2.50
2023-07-24T04:24:30.729Z,2.33
2023-07-24T04:27:32.550Z,2.92
2023-07-24T04:30:35.009Z,2.90
2023-07-24T04:33:36.894Z,2.60
2023-07-24T04:36:39.248Z,2.60
2023-07-24T04:48:11.998Z,3.10
2023-07-24T04:51:14.103Z,2.90
2023-07-24T04:54:16.229Z,3.15
2023-07-24T04:57:17.993Z,2.67
2023-07-24T05:00:19.801Z,2.78
2023-07-24T05:03:21.727Z,3.17
2023-07-24T05:06:24.699Z,3.33
2023-07-24T05:09:26.429Z,2.95
2023-07-24T05:12:28.902Z,2.70
2023-07-24T05:15:30.872Z,3.08
2023-07-24T05:18:32.830Z,2.80
2023-07-24T05:21:34.586Z,2.90
2023-07-24T05:24:36.508Z,3.08
2023-07-24T05:27:38.996Z,2.75
2023-07-24T05:30:41.187Z,3.10
2023-07-24T05:33:43.096Z,2.53
2023-07-24T05:36:44.881Z,2.60
2023-07-24T05:39:47.036Z,3.38
2023-07-24T05:42:48.998Z,2.85
2023-07-24T05:45:54.848Z,3.40
2023-07-24T05:49:26.879Z,2.63
2023-07-24T05:52:28.815Z,3.30
2023-07-24T05:55:31.531Z,3.20
2023-07-24T05:58:33.697Z,3.55
2023-07-24T06:01:35.521Z,2.70
2023-07-24T06:04:37.594Z,2.67
2023-07-24T06:07:39.448Z,2.53
2023-07-24T06:10:41.233Z,3.47
2023-07-24T06:14:22.921Z,2.88
2023-07-24T06:25:56.499Z,3.00
2023-07-24T06:28:58.301Z,3.00
2023-07-24T06:32:00.096Z,3.30
2023-07-24T06:35:01.873Z,2.92
2023-07-24T11:26:35.189Z,3.85
2023-07-24T11:29:39.049Z,4.00
2023-07-24T11:32:42.714Z,4.30
2023-07-24T11:35:45.385Z,4.80
2023-07-24T11:38:48.142Z,4.00
2023-07-24T11:41:50.435Z,4.20
2023-07-24T11:44:52.569Z,4.95
2023-07-24T11:47:57.843Z,4.33
2023-07-24T11:54:17.102Z,4.28
2023-07-24T11:57:19.057Z,3.80
2023-07-24T12:00:23.398Z,5.95
2023-07-24T12:03:30.764Z,4.43
2023-07-24T12:10:29.368Z,3.70
2023-07-24T12:13:33.299Z,5.50
2023-07-24T12:16:36.244Z,5.00
2023-07-24T12:19:38.222Z,5.87
2023-07-24T12:22:40.246Z,4.67
2023-07-24T12:25:42.366Z,4.32
2023-07-24T12:28:49.620Z,4.88
2023-07-24T12:31:51.954Z,4.10
2023-07-24T12:34:59.413Z,5.03
2023-07-24T12:38:01.252Z,4.50
2023-07-24T12:41:03.174Z,4.65
2023-07-24T12:44:05.354Z,5.07
2023-07-24T12:47:07.271Z,4.40
2023-07-24T12:50:16.967Z,4.10
2023-07-24T12:53:20.612Z,4.47
2023-07-24T12:56:27.730Z,4.53
2023-07-24T12:59:30.570Z,3.78
2023-07-24T13:02:33.665Z,4.55
2023-07-24T13:05:35.674Z,4.73
2023-07-24T13:08:37.630Z,4.30
2023-07-24T13:11:49.470Z,5.22
2023-07-24T13:14:52.554Z,4.72
2023-07-24T13:17:55.046Z,4.25
2023-07-24T13:20:58.198Z,4.10
2023-07-24T13:24:00.294Z,4.77
2023-07-24T13:27:02.331Z,4.15
2023-07-24T13:30:04.647Z,3.97
2023-07-24T13:33:06.991Z,4.35
2023-07-24T13:36:09.132Z,4.80
2023-07-24T13:39:11.543Z,4.00
2023-07-24T13:42:14.516Z,3.92
2023-07-24T13:45:16.442Z,3.90
2023-07-24T13:48:18.408Z,3.78
2023-07-24T13:51:25.493Z,4.60
2023-07-24T13:54:27.739Z,3.70
2023-07-24T13:57:30.363Z,4.05
2023-07-24T14:00:32.545Z,4.05
2023-07-24T14:03:35.136Z,5.07
2023-07-24T14:06:37.122Z,5.13
2023-07-24T14:09:40.812Z,4.77
2023-07-24T14:12:48.566Z,4.55
2023-07-24T14:15:50.735Z,3.70
2023-07-24T14:18:52.755Z,4.38
2023-07-24T14:21:54.661Z,4.20
2023-07-24T14:24:56.715Z,5.80
2023-07-24T14:27:58.649Z,4.53
2023-07-24T14:31:21.597Z,5.00
2023-07-24T14:34:23.663Z,4.70
2023-07-24T14:37:25.598Z,3.87
2023-07-24T14:40:27.958Z,4.20
2023-07-24T14:43:29.972Z,3.90
2023-07-24T14:46:31.958Z,4.07
2023-07-24T14:49:33.835Z,4.95
2023-07-24T14:52:35.994Z,4.43
2023-07-24T14:55:40.906Z,4.93
2023-07-24T15:07:58.645Z,4.55
2023-07-24T15:20:15.301Z,5.13
2023-07-24T15:23:17.751Z,4.78
2023-07-24T15:26:20.257Z,4.63
2023-07-24T15:29:22.968Z,4.33
2023-07-24T15:32:24.886Z,5.63
2023-07-24T15:35:26.958Z,5.82
2023-07-24T15:38:29.827Z,5.13
2023-07-24T15:41:33.557Z,5.07
2023-07-24T15:44:35.628Z,4.93
2023-07-24T15:47:37.672Z,5.33
2023-07-24T15:50:42.299Z,5.03
2023-07-24T15:53:46.992Z,5.30
2023-07-24T15:56:58.242Z,5.53
2023-07-24T16:00:00.178Z,5.73
2023-07-24T16:03:02.136Z,5.97
2023-07-24T16:06:04.446Z,5.38
2023-07-24T16:09:06.745Z,5.15
2023-07-24T16:12:08.830Z,5.53
2023-07-24T16:15:11.506Z,5.97
2023-07-24T16:18:13.998Z,5.03
2023-07-24T16:21:15.951Z,5.43
2023-07-24T16:24:19.200Z,5.72
2023-07-24T16:27:21.210Z,5.30
2023-07-24T16:30:58.967Z,5.53
2023-07-24T16:34:01.407Z,5.60
2023-07-24T16:37:04.570Z,5.60
2023-07-24T16:40:07.456Z,5.57
2023-07-24T16:43:10.303Z,5.43
2023-07-24T16:49:17.609Z,5.97
2023-07-24T16:52:19.460Z,4.70
2023-07-24T16:55:21.554Z,5.35
2023-07-24T16:58:26.394Z,5.35
2023-07-24T17:01:28.858Z,6.13
2023-07-24T17:04:31.019Z,5.00
2023-07-24T17:07:32.980Z,5.57
2023-07-24T17:10:46.302Z,5.65
2023-07-24T17:13:48.368Z,5.30
2023-07-24T17:16:50.504Z,5.67
2023-07-24T17:19:56.526Z,5.07
2023-07-24T17:22:59.315Z,4.78
2023-07-24T17:26:01.279Z,4.85
2023-07-24T17:29:03.660Z,5.75
2023-07-24T17:32:06.548Z,5.30
2023-07-24T17:35:23.385Z,6.10
2023-07-24T17:38:25.402Z,5.00
2023-07-24T17:41:31.195Z,5.60
2023-07-24T17:44:33.755Z,6.07
2023-07-24T17:47:36.098Z,5.40
2023-07-24T17:50:38.022Z,5.73
2023-07-24T17:53:39.937Z,5.65
2023-07-24T18:01:18.504Z,7.40
2023-07-24T18:08:56.165Z,6.10
2023-07-24T18:11:58.174Z,11.75
2023-07-24T18:19:35.818Z,5.05
2023-07-24T18:23:39.262Z,6.10
2023-07-24T18:35:54.582Z,4.82
2023-07-24T18:48:10.357Z,5.93
2023-07-24T18:55:48.660Z,6.20
2023-07-24T18:58:51.846Z,6.28
2023-07-24T19:01:54.071Z,6.10
2023-07-24T19:04:56.185Z,6.50
2023-07-24T19:07:58.189Z,6.65
2023-07-24T19:11:01.098Z,6.05
2023-07-24T19:14:04.138Z,6.90
2023-07-24T19:17:06.349Z,6.10
2023-07-24T19:20:10.663Z,6.47
2023-07-24T19:23:12.964Z,5.97
2023-07-24T19:26:15.875Z,6.38
2023-07-24T19:29:18.027Z,6.30
2023-07-24T19:32:21.426Z,5.97
2023-07-24T19:35:28.779Z,7.17
2023-07-24T19:38:31.493Z,5.90
2023-07-24T19:41:34.084Z,6.68
2023-07-24T19:44:37.208Z,6.57
2023-07-24T19:47:42.764Z,6.67
2023-07-24T19:50:55.794Z,5.43
2023-07-24T19:53:58.260Z,6.40
2023-07-24T19:57:00.578Z,6.18
2023-07-24T20:00:02.659Z,5.40
2023-07-24T20:03:06.880Z,5.60
2023-07-24T20:06:11.860Z,5.27
2023-07-24T20:09:14.199Z,5.18
2023-07-24T20:12:18.029Z,5.55
2023-07-24T20:15:19.919Z,5.40
2023-07-24T20:18:21.858Z,5.17
2023-07-24T20:21:24.037Z,6.07
2023-07-24T20:24:26.033Z,5.95
2023-07-24T20:27:27.948Z,5.38
2023-07-24T20:30:29.839Z,5.28
2023-07-24T20:33:32.318Z,5.38
2023-07-24T20:36:34.478Z,4.77
2023-07-24T20:39:36.403Z,4.90
2023-07-24T20:42:41.254Z,4.72
2023-07-24T20:45:43.676Z,5.22
2023-07-24T20:48:46.062Z,5.50
2023-07-24T20:51:50.737Z,5.43
2023-07-24T20:54:54.981Z,4.03
2023-07-24T20:57:56.902Z,5.03
2023-07-24T21:00:59.018Z,5.65
2023-07-24T21:04:00.931Z,5.00
2023-07-24T21:07:06.410Z,5.00
2023-07-24T21:10:09.699Z,5.00
2023-07-24T21:13:11.778Z,5.28
2023-07-24T21:16:13.801Z,5.28
2023-07-24T21:19:15.985Z,4.93
2023-07-24T21:22:18.411Z,4.40
2023-07-24T21:25:20.496Z,4.72
2023-07-24T21:28:23.501Z,4.93
2023-07-24T21:31:25.713Z,5.13
2023-07-24T21:34:27.638Z,5.10
2023-07-24T21:37:29.834Z,4.37
2023-07-24T21:40:41.331Z,4.32
2023-07-24T21:43:44.003Z,4.90
2023-07-24T21:46:46.012Z,4.63
2023-07-24T21:49:47.977Z,5.07
2023-07-24T21:53:17.447Z,4.80
2023-07-24T21:56:19.351Z,5.22
2023-07-24T21:59:22.095Z,4.50
2023-07-24T22:02:24.400Z,4.72
2023-07-24T22:05:26.709Z,5.37
2023-07-24T22:08:29.138Z,4.97
2023-07-24T22:11:34.157Z,4.28
2023-07-24T22:14:40.060Z,3.92
2023-07-24T22:17:42.113Z,4.22
2023-07-24T22:20:44.662Z,4.55
2023-07-24T22:23:49.279Z,4.80
2023-07-24T22:26:51.569Z,4.30
2023-07-24T22:29:54.732Z,4.40
2023-07-24T22:33:04.662Z,4.25
2023-07-24T22:54:00.400Z,3.83
2023-07-24T22:57:28.664Z,3.77
2023-07-24T23:00:30.600Z,3.63
2023-07-24T23:03:33.198Z,4.35
2023-07-24T23:06:35.373Z,4.00
2023-07-24T23:09:37.412Z,3.65
2023-07-24T23:12:39.770Z,4.03
2023-07-24T23:15:42.179Z,4.23
2023-07-24T23:18:44.333Z,4.00
2023-07-24T23:21:46.336Z,4.28
2023-07-24T23:24:48.522Z,3.97
2023-07-24T23:27:50.690Z,4.10
2023-07-24T23:30:52.657Z,3.53
2023-07-24T23:33:54.660Z,4.10
2023-07-24T23:36:56.704Z,4.10
2023-07-24T23:39:58.931Z,4.07
2023-07-24T23:43:01.728Z,4.10
2023-07-24T23:46:14.635Z,3.93
2023-07-24T23:49:17.035Z,3.85
2023-07-24T23:52:22.630Z,4.32
2023-07-24T23:55:24.548Z,4.53
2023-07-24T23:58:26.475Z,4.13
